Terminal Aerodrome Forecast
Issued by NWS

Current Version | Previous Version | Text Only | Print | Product List | Glossary On
Versions: 1 2 3 4 5 6 7 8 9 10 11 12 13 14 15 16 17 18 19 20 21 22 23 24 25 26 27 28 29 30 31 32
000
FTAK31 PAFA 041738
TAFATA
TAF
PATA 041738Z 0418/0518 VRB04KT 2SM -SHSN BR OVC008
     FM042000 VRB03KT 6SM -SN BKN015 OVC025
     FM050400 VRB03KT 4SM -SN BR BKN007 OVC015
     FM051000 VRB03KT 2SM -SN BR BKN007 OVC012=

USA.gov is the U.S. government's official web portal to all federal, state and local government web resources and services.